ENAN/ANX METAR and TAF weather

Enter ICAO airport designator
Station Type Date Time Source
ENAN METAR 2023/02/05 12:50 UTC NOAA

ENAN 051250Z 29025KT 9999 VCSH SCT030 BKN042 04/M01 Q1012


Station Type Date Time Source
ENAN Decoded METAR 2023/02/05 12:50 UTC NOAA

Andoya, Norway (ENAN) 69-18N 016-09E 14M
Feb 05, 2023 - 07:50 AM EST / 2023.02.05 1250 UTC
Wind: from the WNW (290 degrees) at 29 MPH (25 KT):0
Visibility: greater than 7 mile(s):0
Sky conditions: mostly cloudy
Weather: showers in the vicinity
Temperature: 39 F (4 C)
Dew Point: 30 F (-1 C)
Relative Humidity: 69%
Pressure (altimeter): 29.88 in. Hg (1012 hPa)
ob: ENAN 051250Z 29025KT 9999 VCSH SCT030 BKN042 04/M01 Q1012
cycle: 13

Station Type Date Time Source
ENAN TAF 2023/02/05 12:59 UTC NOAA

TAF ENAN 051100Z 0512/0612 29025KT 9999 -RA FEW015CB BKN030
TEMPO 0512/0515 31030G40KT 4000 SHRASNGS BKN014
BECMG 0518/0520 24015KT FEW015TCU BKN040
BECMG 0606/0609 22025KT BKN012
TEMPO 0608/0612 22030G45KT 4000 RADZ BKN006

Example: see airport list